sensor_id;sensor_type;location;lat;lon;timestamp;temperature;humidity
10722;DHT22;5412;59.450;18.124;2024-01-11T00:00:35;4.60;99.90
10722;DHT22;5412;59.450;18.124;2024-01-11T00:03:01;4.60;99.90
10722;DHT22;5412;59.450;18.124;2024-01-11T00:05:27;4.60;99.90
10722;DHT22;5412;59.450;18.124;2024-01-11T00:07:53;5.20;99.90
10722;DHT22;5412;59.450;18.124;2024-01-11T00:10:19;4.60;99.90
10722;DHT22;5412;59.450;18.124;2024-01-11T00:12:45;4.70;99.90
10722;DHT22;5412;59.450;18.124;2024-01-11T00:15:11;4.60;99.90
10722;DHT22;5412;59.450;18.124;2024-01-11T00:17:37;4.70;99.90
10722;DHT22;5412;59.450;18.124;2024-01-11T00:20:03;4.60;99.90
10722;DHT22;5412;59.450;18.124;2024-01-11T00:22:28;4.60;99.90
10722;DHT22;5412;59.450;18.124;2024-01-11T00:24:55;4.60;99.90
10722;DHT22;5412;59.450;18.124;2024-01-11T00:27:22;4.50;99.90
10722;DHT22;5412;59.450;18.124;2024-01-11T00:29:48;4.60;99.90
10722;DHT22;5412;59.450;18.124;2024-01-11T00:32:14;4.50;99.90
10722;DHT22;5412;59.450;18.124;2024-01-11T00:34:39;4.50;99.90
10722;DHT22;5412;59.450;18.124;2024-01-11T00:37:05;4.50;99.90
10722;DHT22;5412;59.450;18.124;2024-01-11T00:39:31;4.40;99.90
10722;DHT22;5412;59.450;18.124;2024-01-11T00:41:57;4.40;99.90
10722;DHT22;5412;59.450;18.124;2024-01-11T00:44:22;4.40;99.90
10722;DHT22;5412;59.450;18.124;2024-01-11T00:46:48;4.40;99.90
10722;DHT22;5412;59.450;18.124;2024-01-11T00:49:14;4.40;99.90
10722;DHT22;5412;59.450;18.124;2024-01-11T00:51:40;4.40;99.90
10722;DHT22;5412;59.450;18.124;2024-01-11T00:54:05;4.30;99.90
10722;DHT22;5412;59.450;18.124;2024-01-11T00:56:31;4.40;99.90
10722;DHT22;5412;59.450;18.124;2024-01-11T00:58:57;4.40;99.90
10722;DHT22;5412;59.450;18.124;2024-01-11T01:01:23;4.40;99.90
10722;DHT22;5412;59.450;18.124;2024-01-11T01:03:48;4.40;99.90
10722;DHT22;5412;59.450;18.124;2024-01-11T01:06:14;4.40;99.90
10722;DHT22;5412;59.450;18.124;2024-01-11T01:08:40;4.40;99.90
10722;DHT22;5412;59.450;18.124;2024-01-11T01:11:05;4.40;99.90
10722;DHT22;5412;59.450;18.124;2024-01-11T01:13:32;4.40;99.90
10722;DHT22;5412;59.450;18.124;2024-01-11T01:15:57;4.40;99.90
10722;DHT22;5412;59.450;18.124;2024-01-11T01:18:23;4.40;99.90
10722;DHT22;5412;59.450;18.124;2024-01-11T01:20:49;4.30;99.90
10722;DHT22;5412;59.450;18.124;2024-01-11T01:23:15;4.30;99.90
10722;DHT22;5412;59.450;18.124;2024-01-11T01:25:41;4.40;99.90
10722;DHT22;5412;59.450;18.124;2024-01-11T01:28:07;4.40;99.90
10722;DHT22;5412;59.450;18.124;2024-01-11T01:30:33;4.40;99.90
10722;DHT22;5412;59.450;18.124;2024-01-11T01:32:59;4.40;99.90
10722;DHT22;5412;59.450;18.124;2024-01-11T01:35:24;4.30;99.90
10722;DHT22;5412;59.450;18.124;2024-01-11T01:37:50;4.30;99.90
10722;DHT22;5412;59.450;18.124;2024-01-11T01:40:16;4.30;99.90
10722;DHT22;5412;59.450;18.124;2024-01-11T01:42:45;4.30;99.90
10722;DHT22;5412;59.450;18.124;2024-01-11T01:45:11;4.40;99.90
10722;DHT22;5412;59.450;18.124;2024-01-11T01:47:40;4.40;99.90
10722;DHT22;5412;59.450;18.124;2024-01-11T01:50:07;4.40;99.90
10722;DHT22;5412;59.450;18.124;2024-01-11T01:52:33;4.40;99.90
10722;DHT22;5412;59.450;18.124;2024-01-11T01:55:01;4.40;99.90
10722;DHT22;5412;59.450;18.124;2024-01-11T01:57:28;4.40;99.90
10722;DHT22;5412;59.450;18.124;2024-01-11T01:59:56;4.30;99.90
10722;DHT22;5412;59.450;18.124;2024-01-11T02:02:22;4.30;99.90
10722;DHT22;5412;59.450;18.124;2024-01-11T02:04:48;4.30;99.90
10722;DHT22;5412;59.450;18.124;2024-01-11T02:07:15;4.30;99.90
10722;DHT22;5412;59.450;18.124;2024-01-11T02:09:43;4.20;99.90
10722;DHT22;5412;59.450;18.124;2024-01-11T02:12:09;4.30;99.90
10722;DHT22;5412;59.450;18.124;2024-01-11T02:14:37;4.30;99.90
10722;DHT22;5412;59.450;18.124;2024-01-11T02:17:03;4.30;99.90
10722;DHT22;5412;59.450;18.124;2024-01-11T02:19:29;4.30;99.90
10722;DHT22;5412;59.450;18.124;2024-01-11T02:21:58;4.30;99.90
10722;DHT22;5412;59.450;18.124;2024-01-11T02:24:25;4.30;99.90
10722;DHT22;5412;59.450;18.124;2024-01-11T02:27:02;4.30;99.90
10722;DHT22;5412;59.450;18.124;2024-01-11T02:29:28;4.30;99.90
10722;DHT22;5412;59.450;18.124;2024-01-11T02:31:55;4.30;99.90
10722;DHT22;5412;59.450;18.124;2024-01-11T02:34:24;4.30;99.90
10722;DHT22;5412;59.450;18.124;2024-01-11T02:36:53;4.20;99.90
10722;DHT22;5412;59.450;18.124;2024-01-11T02:39:19;4.20;99.90
10722;DHT22;5412;59.450;18.124;2024-01-11T02:41:45;4.20;99.90
10722;DHT22;5412;59.450;18.124;2024-01-11T02:44:11;4.20;99.90
10722;DHT22;5412;59.450;18.124;2024-01-11T02:46:36;4.20;99.90
10722;DHT22;5412;59.450;18.124;2024-01-11T02:49:02;4.20;99.90
10722;DHT22;5412;59.450;18.124;2024-01-11T02:51:28;4.10;99.90
10722;DHT22;5412;59.450;18.124;2024-01-11T02:53:53;3.70;99.90
10722;DHT22;5412;59.450;18.124;2024-01-11T02:56:19;4.10;99.90
10722;DHT22;5412;59.450;18.124;2024-01-11T02:58:45;4.10;99.90
10722;DHT22;5412;59.450;18.124;2024-01-11T03:01:10;4.10;99.90
10722;DHT22;5412;59.450;18.124;2024-01-11T03:03:36;4.10;99.90
10722;DHT22;5412;59.450;18.124;2024-01-11T03:06:02;4.10;99.90
10722;DHT22;5412;59.450;18.124;2024-01-11T03:08:28;4.10;99.90
10722;DHT22;5412;59.450;18.124;2024-01-11T03:10:54;4.10;99.90
10722;DHT22;5412;59.450;18.124;2024-01-11T03:13:20;4.10;99.90
10722;DHT22;5412;59.450;18.124;2024-01-11T03:15:46;4.10;99.90
10722;DHT22;5412;59.450;18.124;2024-01-11T03:18:12;4.10;99.90
10722;DHT22;5412;59.450;18.124;2024-01-11T03:20:38;4.10;99.90
10722;DHT22;5412;59.450;18.124;2024-01-11T03:23:03;4.10;99.90
10722;DHT22;5412;59.450;18.124;2024-01-11T03:25:29;4.10;99.90
10722;DHT22;5412;59.450;18.124;2024-01-11T03:27:55;4.20;99.90
10722;DHT22;5412;59.450;18.124;2024-01-11T03:30:21;4.20;99.90
10722;DHT22;5412;59.450;18.124;2024-01-11T03:32:46;4.20;99.90
10722;DHT22;5412;59.450;18.124;2024-01-11T03:35:13;4.20;99.90
10722;DHT22;5412;59.450;18.124;2024-01-11T03:37:38;4.20;99.90
10722;DHT22;5412;59.450;18.124;2024-01-11T03:40:05;4.20;99.90
10722;DHT22;5412;59.450;18.124;2024-01-11T03:42:30;4.20;99.90
10722;DHT22;5412;59.450;18.124;2024-01-11T03:44:56;4.30;99.90
10722;DHT22;5412;59.450;18.124;2024-01-11T03:47:22;4.30;99.90
10722;DHT22;5412;59.450;18.124;2024-01-11T03:49:47;4.30;99.90
10722;DHT22;5412;59.450;18.124;2024-01-11T03:52:13;4.30;99.90
10722;DHT22;5412;59.450;18.124;2024-01-11T03:54:39;4.30;99.90
10722;DHT22;5412;59.450;18.124;2024-01-11T03:57:05;4.40;99.90
10722;DHT22;5412;59.450;18.124;2024-01-11T03:59:31;4.40;99.90
10722;DHT22;5412;59.450;18.124;2024-01-11T04:01:57;4.30;99.90
10722;DHT22;5412;59.450;18.124;2024-01-11T04:04:23;4.30;99.90
10722;DHT22;5412;59.450;18.124;2024-01-11T04:06:49;4.30;99.90
10722;DHT22;5412;59.450;18.124;2024-01-11T04:09:15;4.30;99.90
10722;DHT22;5412;59.450;18.124;2024-01-11T04:11:41;4.30;99.90
10722;DHT22;5412;59.450;18.124;2024-01-11T04:14:06;4.20;99.90
10722;DHT22;5412;59.450;18.124;2024-01-11T04:16:32;4.30;99.90
10722;DHT22;5412;59.450;18.124;2024-01-11T04:18:58;4.30;99.90
10722;DHT22;5412;59.450;18.124;2024-01-11T04:21:26;4.20;99.90
10722;DHT22;5412;59.450;18.124;2024-01-11T04:23:56;4.30;99.90
10722;DHT22;5412;59.450;18.124;2024-01-11T04:26:22;4.20;99.90
10722;DHT22;5412;59.450;18.124;2024-01-11T04:28:48;4.20;99.90
10722;DHT22;5412;59.450;18.124;2024-01-11T04:31:14;4.30;99.90
10722;DHT22;5412;59.450;18.124;2024-01-11T04:33:45;4.30;99.90
10722;DHT22;5412;59.450;18.124;2024-01-11T04:36:12;4.40;99.90
10722;DHT22;5412;59.450;18.124;2024-01-11T04:38:38;4.40;99.90
10722;DHT22;5412;59.450;18.124;2024-01-11T04:41:13;4.40;99.90
10722;DHT22;5412;59.450;18.124;2024-01-11T04:43:41;4.40;99.90
10722;DHT22;5412;59.450;18.124;2024-01-11T04:46:23;4.40;99.90
10722;DHT22;5412;59.450;18.124;2024-01-11T04:48:50;4.40;99.90
10722;DHT22;5412;59.450;18.124;2024-01-11T04:51:17;4.40;99.90
10722;DHT22;5412;59.450;18.124;2024-01-11T04:53:43;4.30;99.90
10722;DHT22;5412;59.450;18.124;2024-01-11T04:56:13;4.20;99.90
10722;DHT22;5412;59.450;18.124;2024-01-11T04:58:41;4.20;99.90
10722;DHT22;5412;59.450;18.124;2024-01-11T05:01:07;4.20;99.90
10722;DHT22;5412;59.450;18.124;2024-01-11T05:03:39;4.10;99.90
10722;DHT22;5412;59.450;18.124;2024-01-11T05:06:05;4.20;99.90
10722;DHT22;5412;59.450;18.124;2024-01-11T05:08:30;4.20;99.90
10722;DHT22;5412;59.450;18.124;2024-01-11T05:10:56;4.20;99.90
10722;DHT22;5412;59.450;18.124;2024-01-11T05:13:22;4.20;99.90
10722;DHT22;5412;59.450;18.124;2024-01-11T05:15:48;4.10;99.90
10722;DHT22;5412;59.450;18.124;2024-01-11T05:18:14;4.10;99.90
10722;DHT22;5412;59.450;18.124;2024-01-11T05:20:39;4.10;99.90
10722;DHT22;5412;59.450;18.124;2024-01-11T05:23:05;4.20;99.90
10722;DHT22;5412;59.450;18.124;2024-01-11T05:25:32;4.10;99.90
10722;DHT22;5412;59.450;18.124;2024-01-11T05:28:00;4.20;99.90
10722;DHT22;5412;59.450;18.124;2024-01-11T05:30:25;4.20;99.90
10722;DHT22;5412;59.450;18.124;2024-01-11T05:32:52;4.20;99.90
10722;DHT22;5412;59.450;18.124;2024-01-11T05:35:17;4.10;99.90
10722;DHT22;5412;59.450;18.124;2024-01-11T05:37:43;4.90;99.90
10722;DHT22;5412;59.450;18.124;2024-01-11T05:40:09;4.20;99.90
10722;DHT22;5412;59.450;18.124;2024-01-11T05:42:34;4.10;99.90
10722;DHT22;5412;59.450;18.124;2024-01-11T05:45:00;4.10;99.90
10722;DHT22;5412;59.450;18.124;2024-01-11T05:47:26;4.10;99.90
10722;DHT22;5412;59.450;18.124;2024-01-11T05:49:51;4.20;99.90
10722;DHT22;5412;59.450;18.124;2024-01-11T05:52:17;4.10;99.90
10722;DHT22;5412;59.450;18.124;2024-01-11T05:54:43;4.10;99.90
10722;DHT22;5412;59.450;18.124;2024-01-11T05:57:08;4.20;99.90
10722;DHT22;5412;59.450;18.124;2024-01-11T05:59:34;4.20;99.90
10722;DHT22;5412;59.450;18.124;2024-01-11T06:02:00;4.20;99.90
10722;DHT22;5412;59.450;18.124;2024-01-11T06:04:27;4.00;99.90
10722;DHT22;5412;59.450;18.124;2024-01-11T06:06:52;4.00;99.90
10722;DHT22;5412;59.450;18.124;2024-01-11T06:09:18;4.00;99.90
10722;DHT22;5412;59.450;18.124;2024-01-11T06:11:44;4.10;99.90
10722;DHT22;5412;59.450;18.124;2024-01-11T06:14:09;3.90;99.90
10722;DHT22;5412;59.450;18.124;2024-01-11T06:16:35;3.90;99.90
10722;DHT22;5412;59.450;18.124;2024-01-11T06:19:01;3.90;99.90
10722;DHT22;5412;59.450;18.124;2024-01-11T06:21:35;3.90;99.90
10722;DHT22;5412;59.450;18.124;2024-01-11T06:24:01;3.90;99.90
10722;DHT22;5412;59.450;18.124;2024-01-11T06:26:31;4.00;99.90
10722;DHT22;5412;59.450;18.124;2024-01-11T06:28:57;3.90;99.90
10722;DHT22;5412;59.450;18.124;2024-01-11T06:31:24;4.00;99.90
10722;DHT22;5412;59.450;18.124;2024-01-11T06:33:49;4.00;99.90
10722;DHT22;5412;59.450;18.124;2024-01-11T06:36:18;4.00;99.90
10722;DHT22;5412;59.450;18.124;2024-01-11T06:38:43;4.00;99.90
10722;DHT22;5412;59.450;18.124;2024-01-11T06:41:09;4.00;99.90
10722;DHT22;5412;59.450;18.124;2024-01-11T06:43:35;4.10;99.90
10722;DHT22;5412;59.450;18.124;2024-01-11T06:46:04;4.00;99.90
10722;DHT22;5412;59.450;18.124;2024-01-11T06:48:31;3.90;99.90
10722;DHT22;5412;59.450;18.124;2024-01-11T06:50:57;3.90;99.90
10722;DHT22;5412;59.450;18.124;2024-01-11T06:53:23;3.90;99.90
10722;DHT22;5412;59.450;18.124;2024-01-11T06:55:48;3.90;99.90
10722;DHT22;5412;59.450;18.124;2024-01-11T06:58:22;3.90;99.90
10722;DHT22;5412;59.450;18.124;2024-01-11T07:00:49;4.90;99.90
10722;DHT22;5412;59.450;18.124;2024-01-11T07:03:15;3.90;99.90
10722;DHT22;5412;59.450;18.124;2024-01-11T07:05:41;3.90;99.90
10722;DHT22;5412;59.450;18.124;2024-01-11T07:08:06;3.80;99.90
10722;DHT22;5412;59.450;18.124;2024-01-11T07:10:32;3.70;99.90
10722;DHT22;5412;59.450;18.124;2024-01-11T07:13:01;3.60;99.90
10722;DHT22;5412;59.450;18.124;2024-01-11T07:15:27;3.70;99.90
10722;DHT22;5412;59.450;18.124;2024-01-11T07:17:55;3.70;99.90
10722;DHT22;5412;59.450;18.124;2024-01-11T07:20:21;3.70;99.90
10722;DHT22;5412;59.450;18.124;2024-01-11T07:22:46;3.60;99.90
10722;DHT22;5412;59.450;18.124;2024-01-11T07:25:12;3.70;99.90
10722;DHT22;5412;59.450;18.124;2024-01-11T07:27:39;3.70;99.90
10722;DHT22;5412;59.450;18.124;2024-01-11T07:30:05;3.60;99.90
10722;DHT22;5412;59.450;18.124;2024-01-11T07:32:32;3.60;99.90
10722;DHT22;5412;59.450;18.124;2024-01-11T07:34:57;3.40;99.90
10722;DHT22;5412;59.450;18.124;2024-01-11T07:37:23;3.40;99.90
10722;DHT22;5412;59.450;18.124;2024-01-11T07:39:51;3.50;99.90
10722;DHT22;5412;59.450;18.124;2024-01-11T07:42:16;3.50;99.90
10722;DHT22;5412;59.450;18.124;2024-01-11T07:44:42;3.50;99.90
10722;DHT22;5412;59.450;18.124;2024-01-11T07:47:08;3.50;99.90
10722;DHT22;5412;59.450;18.124;2024-01-11T07:49:36;3.60;99.90
10722;DHT22;5412;59.450;18.124;2024-01-11T07:52:02;3.60;99.90
10722;DHT22;5412;59.450;18.124;2024-01-11T07:54:28;3.30;99.90
10722;DHT22;5412;59.450;18.124;2024-01-11T07:56:53;3.30;99.90
10722;DHT22;5412;59.450;18.124;2024-01-11T07:59:19;3.30;99.90
10722;DHT22;5412;59.450;18.124;2024-01-11T08:01:45;3.40;99.90
10722;DHT22;5412;59.450;18.124;2024-01-11T08:04:10;3.30;99.90
10722;DHT22;5412;59.450;18.124;2024-01-11T08:06:36;3.40;99.90
10722;DHT22;5412;59.450;18.124;2024-01-11T08:09:02;3.40;99.90
10722;DHT22;5412;59.450;18.124;2024-01-11T08:11:29;3.50;99.90
10722;DHT22;5412;59.450;18.124;2024-01-11T08:13:55;3.60;99.90
10722;DHT22;5412;59.450;18.124;2024-01-11T08:16:21;3.70;99.90
10722;DHT22;5412;59.450;18.124;2024-01-11T08:18:47;3.90;99.90
10722;DHT22;5412;59.450;18.124;2024-01-11T08:21:14;3.90;99.90
10722;DHT22;5412;59.450;18.124;2024-01-11T08:23:40;3.90;99.90
10722;DHT22;5412;59.450;18.124;2024-01-11T08:26:12;3.70;99.90
10722;DHT22;5412;59.450;18.124;2024-01-11T08:28:39;3.70;99.90
10722;DHT22;5412;59.450;18.124;2024-01-11T08:31:05;3.80;99.90
10722;DHT22;5412;59.450;18.124;2024-01-11T08:33:31;3.80;99.90
10722;DHT22;5412;59.450;18.124;2024-01-11T08:35:57;3.70;99.90
10722;DHT22;5412;59.450;18.124;2024-01-11T08:38:23;3.70;99.90
10722;DHT22;5412;59.450;18.124;2024-01-11T08:40:50;3.70;99.90
10722;DHT22;5412;59.450;18.124;2024-01-11T08:43:15;3.60;99.90
10722;DHT22;5412;59.450;18.124;2024-01-11T08:45:41;3.70;99.90
10722;DHT22;5412;59.450;18.124;2024-01-11T08:48:09;3.70;99.90
10722;DHT22;5412;59.450;18.124;2024-01-11T08:50:35;3.80;99.90
10722;DHT22;5412;59.450;18.124;2024-01-11T08:53:01;3.80;99.90
10722;DHT22;5412;59.450;18.124;2024-01-11T08:55:26;3.60;99.90
10722;DHT22;5412;59.450;18.124;2024-01-11T08:57:52;3.60;99.90
10722;DHT22;5412;59.450;18.124;2024-01-11T09:00:18;3.40;99.90
10722;DHT22;5412;59.450;18.124;2024-01-11T09:02:44;3.50;99.90
10722;DHT22;5412;59.450;18.124;2024-01-11T09:05:11;3.40;99.90
10722;DHT22;5412;59.450;18.124;2024-01-11T09:07:37;3.10;99.90
10722;DHT22;5412;59.450;18.124;2024-01-11T09:10:03;3.10;99.90
10722;DHT22;5412;59.450;18.124;2024-01-11T09:12:29;3.00;99.90
10722;DHT22;5412;59.450;18.124;2024-01-11T09:14:54;3.00;99.90
10722;DHT22;5412;59.450;18.124;2024-01-11T09:17:20;2.90;99.90
10722;DHT22;5412;59.450;18.124;2024-01-11T09:19:48;3.00;99.90
10722;DHT22;5412;59.450;18.124;2024-01-11T09:22:13;3.10;99.90
10722;DHT22;5412;59.450;18.124;2024-01-11T09:24:39;3.20;99.90
10722;DHT22;5412;59.450;18.124;2024-01-11T09:27:05;3.30;99.90
10722;DHT22;5412;59.450;18.124;2024-01-11T09:29:31;3.40;99.90
10722;DHT22;5412;59.450;18.124;2024-01-11T09:31:56;3.50;99.90
10722;DHT22;5412;59.450;18.124;2024-01-11T09:34:22;3.30;99.90
10722;DHT22;5412;59.450;18.124;2024-01-11T09:36:48;3.40;99.90
10722;DHT22;5412;59.450;18.124;2024-01-11T09:39:13;3.40;99.90
10722;DHT22;5412;59.450;18.124;2024-01-11T09:41:42;3.40;99.90
10722;DHT22;5412;59.450;18.124;2024-01-11T09:44:10;3.30;99.90
10722;DHT22;5412;59.450;18.124;2024-01-11T09:46:36;3.30;99.90
10722;DHT22;5412;59.450;18.124;2024-01-11T09:49:02;3.30;99.90
10722;DHT22;5412;59.450;18.124;2024-01-11T09:51:34;3.00;99.90
10722;DHT22;5412;59.450;18.124;2024-01-11T09:54:01;3.00;99.90
10722;DHT22;5412;59.450;18.124;2024-01-11T09:56:28;3.10;99.90
10722;DHT22;5412;59.450;18.124;2024-01-11T09:58:54;3.10;99.90
10722;DHT22;5412;59.450;18.124;2024-01-11T10:01:20;3.10;99.90
10722;DHT22;5412;59.450;18.124;2024-01-11T10:03:45;3.00;99.90
10722;DHT22;5412;59.450;18.124;2024-01-11T10:06:12;3.10;99.90
10722;DHT22;5412;59.450;18.124;2024-01-11T10:08:37;3.00;99.90
10722;DHT22;5412;59.450;18.124;2024-01-11T10:11:03;3.00;99.90
10722;DHT22;5412;59.450;18.124;2024-01-11T10:13:30;3.00;99.90
10722;DHT22;5412;59.450;18.124;2024-01-11T10:16:09;3.00;99.90
10722;DHT22;5412;59.450;18.124;2024-01-11T10:18:36;3.00;99.90
10722;DHT22;5412;59.450;18.124;2024-01-11T10:21:02;1.80;99.90
10722;DHT22;5412;59.450;18.124;2024-01-11T10:23:29;2.90;99.90
10722;DHT22;5412;59.450;18.124;2024-01-11T10:25:56;2.90;99.90
10722;DHT22;5412;59.450;18.124;2024-01-11T10:28:24;2.90;99.90
10722;DHT22;5412;59.450;18.124;2024-01-11T10:30:51;3.00;99.90
10722;DHT22;5412;59.450;18.124;2024-01-11T10:33:20;3.00;99.90
10722;DHT22;5412;59.450;18.124;2024-01-11T10:35:49;2.90;99.90
10722;DHT22;5412;59.450;18.124;2024-01-11T10:38:15;2.90;99.90
10722;DHT22;5412;59.450;18.124;2024-01-11T10:40:42;2.90;99.90
10722;DHT22;5412;59.450;18.124;2024-01-11T10:43:11;3.00;99.90
10722;DHT22;5412;59.450;18.124;2024-01-11T10:45:38;3.10;99.90
10722;DHT22;5412;59.450;18.124;2024-01-11T10:48:16;3.00;99.90
10722;DHT22;5412;59.450;18.124;2024-01-11T10:50:46;3.00;99.90
10722;DHT22;5412;59.450;18.124;2024-01-11T10:56:03;2.80;99.90
10722;DHT22;5412;59.450;18.124;2024-01-11T10:58:33;2.90;99.90
10722;DHT22;5412;59.450;18.124;2024-01-11T11:01:02;2.90;99.90
10722;DHT22;5412;59.450;18.124;2024-01-11T11:03:30;3.00;99.90
10722;DHT22;5412;59.450;18.124;2024-01-11T11:05:58;3.00;99.90
10722;DHT22;5412;59.450;18.124;2024-01-11T11:08:24;3.10;99.90
10722;DHT22;5412;59.450;18.124;2024-01-11T11:11:02;3.00;99.90
10722;DHT22;5412;59.450;18.124;2024-01-11T11:13:32;3.10;99.90
10722;DHT22;5412;59.450;18.124;2024-01-11T11:16:00;3.10;99.90
10722;DHT22;5412;59.450;18.124;2024-01-11T11:18:27;3.00;99.90
10722;DHT22;5412;59.450;18.124;2024-01-11T11:20:53;2.80;99.90
10722;DHT22;5412;59.450;18.124;2024-01-11T11:23:19;2.80;99.90
10722;DHT22;5412;59.450;18.124;2024-01-11T11:25:47;2.70;99.90
10722;DHT22;5412;59.450;18.124;2024-01-11T11:28:15;2.70;99.90
10722;DHT22;5412;59.450;18.124;2024-01-11T11:30:42;2.80;99.90
10722;DHT22;5412;59.450;18.124;2024-01-11T11:33:18;2.90;99.90
10722;DHT22;5412;59.450;18.124;2024-01-11T11:35:49;1.80;99.90
10722;DHT22;5412;59.450;18.124;2024-01-11T11:38:21;2.90;99.90
10722;DHT22;5412;59.450;18.124;2024-01-11T11:40:48;2.80;99.90
10722;DHT22;5412;59.450;18.124;2024-01-11T11:43:17;2.70;99.90
10722;DHT22;5412;59.450;18.124;2024-01-11T11:45:45;2.60;99.90
10722;DHT22;5412;59.450;18.124;2024-01-11T11:53:34;2.70;99.90
10722;DHT22;5412;59.450;18.124;2024-01-11T11:56:01;2.70;99.90
10722;DHT22;5412;59.450;18.124;2024-01-11T11:58:28;2.50;99.90
10722;DHT22;5412;59.450;18.124;2024-01-11T12:00:55;2.30;99.90
10722;DHT22;5412;59.450;18.124;2024-01-11T12:03:35;2.40;99.90
10722;DHT22;5412;59.450;18.124;2024-01-11T12:06:03;2.40;99.90
10722;DHT22;5412;59.450;18.124;2024-01-11T12:08:29;2.60;99.90
10722;DHT22;5412;59.450;18.124;2024-01-11T12:10:56;2.60;99.90
10722;DHT22;5412;59.450;18.124;2024-01-11T12:13:22;2.70;99.90
10722;DHT22;5412;59.450;18.124;2024-01-11T12:15:47;2.60;99.90
10722;DHT22;5412;59.450;18.124;2024-01-11T12:18:13;2.50;99.90
10722;DHT22;5412;59.450;18.124;2024-01-11T12:20:39;2.50;99.90
10722;DHT22;5412;59.450;18.124;2024-01-11T12:23:05;2.60;99.90
10722;DHT22;5412;59.450;18.124;2024-01-11T12:25:31;2.60;99.90
10722;DHT22;5412;59.450;18.124;2024-01-11T12:27:57;2.60;99.90
10722;DHT22;5412;59.450;18.124;2024-01-11T12:30:25;2.50;99.90
10722;DHT22;5412;59.450;18.124;2024-01-11T12:32:51;2.60;99.90
10722;DHT22;5412;59.450;18.124;2024-01-11T12:35:17;2.70;99.90
10722;DHT22;5412;59.450;18.124;2024-01-11T12:38:00;2.50;99.90
10722;DHT22;5412;59.450;18.124;2024-01-11T12:40:32;2.50;99.90
10722;DHT22;5412;59.450;18.124;2024-01-11T12:42:59;2.70;99.90
10722;DHT22;5412;59.450;18.124;2024-01-11T12:45:25;2.80;99.90
10722;DHT22;5412;59.450;18.124;2024-01-11T12:47:55;2.70;99.90
10722;DHT22;5412;59.450;18.124;2024-01-11T12:50:22;2.60;99.90
10722;DHT22;5412;59.450;18.124;2024-01-11T12:55:30;2.70;99.90
10722;DHT22;5412;59.450;18.124;2024-01-11T12:58:06;2.70;99.90
10722;DHT22;5412;59.450;18.124;2024-01-11T13:00:32;2.80;99.90
10722;DHT22;5412;59.450;18.124;2024-01-11T13:02:58;2.80;99.90
10722;DHT22;5412;59.450;18.124;2024-01-11T13:05:25;2.70;99.90
10722;DHT22;5412;59.450;18.124;2024-01-11T13:07:51;2.70;99.90
10722;DHT22;5412;59.450;18.124;2024-01-11T13:10:16;2.80;99.90
10722;DHT22;5412;59.450;18.124;2024-01-11T13:12:42;2.70;99.90
10722;DHT22;5412;59.450;18.124;2024-01-11T13:15:08;2.70;99.90
10722;DHT22;5412;59.450;18.124;2024-01-11T13:17:34;2.60;99.90
10722;DHT22;5412;59.450;18.124;2024-01-11T13:20:00;2.60;99.90
10722;DHT22;5412;59.450;18.124;2024-01-11T13:22:26;2.70;99.90
10722;DHT22;5412;59.450;18.124;2024-01-11T13:24:52;2.70;99.90
10722;DHT22;5412;59.450;18.124;2024-01-11T13:27:18;2.60;99.90
10722;DHT22;5412;59.450;18.124;2024-01-11T13:29:44;2.70;99.90
10722;DHT22;5412;59.450;18.124;2024-01-11T13:32:09;2.70;99.90
10722;DHT22;5412;59.450;18.124;2024-01-11T13:34:36;2.70;99.90
10722;DHT22;5412;59.450;18.124;2024-01-11T13:37:02;2.80;99.90
10722;DHT22;5412;59.450;18.124;2024-01-11T13:39:28;2.80;99.90
10722;DHT22;5412;59.450;18.124;2024-01-11T13:41:54;2.90;99.90
10722;DHT22;5412;59.450;18.124;2024-01-11T13:44:20;2.80;99.90
10722;DHT22;5412;59.450;18.124;2024-01-11T13:46:45;2.80;99.90
10722;DHT22;5412;59.450;18.124;2024-01-11T13:49:11;2.70;99.90
10722;DHT22;5412;59.450;18.124;2024-01-11T13:51:37;2.70;99.90
10722;DHT22;5412;59.450;18.124;2024-01-11T13:54:03;2.60;99.90
10722;DHT22;5412;59.450;18.124;2024-01-11T13:56:29;2.50;99.90
10722;DHT22;5412;59.450;18.124;2024-01-11T13:58:56;2.40;99.90
10722;DHT22;5412;59.450;18.124;2024-01-11T14:01:21;2.40;99.90
10722;DHT22;5412;59.450;18.124;2024-01-11T14:03:47;2.40;99.90
10722;DHT22;5412;59.450;18.124;2024-01-11T14:06:13;2.40;99.90
10722;DHT22;5412;59.450;18.124;2024-01-11T14:08:39;2.40;99.90
10722;DHT22;5412;59.450;18.124;2024-01-11T14:11:04;2.20;99.90
10722;DHT22;5412;59.450;18.124;2024-01-11T14:13:31;2.30;99.90
10722;DHT22;5412;59.450;18.124;2024-01-11T14:15:56;2.30;99.90
10722;DHT22;5412;59.450;18.124;2024-01-11T14:18:23;2.40;99.90
10722;DHT22;5412;59.450;18.124;2024-01-11T14:20:49;2.50;99.90
10722;DHT22;5412;59.450;18.124;2024-01-11T14:23:15;2.50;99.90
10722;DHT22;5412;59.450;18.124;2024-01-11T14:25:41;2.50;99.90
10722;DHT22;5412;59.450;18.124;2024-01-11T14:28:06;2.60;99.90
10722;DHT22;5412;59.450;18.124;2024-01-11T14:30:33;2.60;99.90
10722;DHT22;5412;59.450;18.124;2024-01-11T14:32:59;2.70;99.90
10722;DHT22;5412;59.450;18.124;2024-01-11T14:35:24;2.80;99.90
10722;DHT22;5412;59.450;18.124;2024-01-11T14:37:50;2.80;99.90
10722;DHT22;5412;59.450;18.124;2024-01-11T14:40:18;2.80;99.90
10722;DHT22;5412;59.450;18.124;2024-01-11T14:42:44;2.70;99.90
10722;DHT22;5412;59.450;18.124;2024-01-11T14:45:09;2.60;99.90
10722;DHT22;5412;59.450;18.124;2024-01-11T14:47:35;2.60;99.90
10722;DHT22;5412;59.450;18.124;2024-01-11T14:50:01;2.40;99.90
10722;DHT22;5412;59.450;18.124;2024-01-11T14:52:29;2.20;99.90
10722;DHT22;5412;59.450;18.124;2024-01-11T14:54:56;2.30;99.90
10722;DHT22;5412;59.450;18.124;2024-01-11T14:57:22;2.20;99.90
10722;DHT22;5412;59.450;18.124;2024-01-11T14:59:48;2.20;99.90
10722;DHT22;5412;59.450;18.124;2024-01-11T15:02:14;2.20;99.90
10722;DHT22;5412;59.450;18.124;2024-01-11T15:04:40;2.20;99.90
10722;DHT22;5412;59.450;18.124;2024-01-11T15:07:06;2.30;99.90
10722;DHT22;5412;59.450;18.124;2024-01-11T15:09:33;2.30;99.90
10722;DHT22;5412;59.450;18.124;2024-01-11T15:11:59;2.40;99.90
10722;DHT22;5412;59.450;18.124;2024-01-11T15:14:25;2.40;99.90
10722;DHT22;5412;59.450;18.124;2024-01-11T15:17:01;2.30;99.90
10722;DHT22;5412;59.450;18.124;2024-01-11T15:19:27;2.40;99.90
10722;DHT22;5412;59.450;18.124;2024-01-11T15:21:53;2.30;99.90
10722;DHT22;5412;59.450;18.124;2024-01-11T15:24:19;2.40;99.90
10722;DHT22;5412;59.450;18.124;2024-01-11T15:26:45;2.50;99.90
10722;DHT22;5412;59.450;18.124;2024-01-11T15:29:11;2.40;99.90
10722;DHT22;5412;59.450;18.124;2024-01-11T15:31:37;2.40;99.90
10722;DHT22;5412;59.450;18.124;2024-01-11T15:34:05;2.40;99.90
10722;DHT22;5412;59.450;18.124;2024-01-11T15:36:32;2.40;99.90
10722;DHT22;5412;59.450;18.124;2024-01-11T15:38:58;2.30;99.90
10722;DHT22;5412;59.450;18.124;2024-01-11T15:41:24;2.40;99.90
10722;DHT22;5412;59.450;18.124;2024-01-11T15:43:49;2.40;99.90
10722;DHT22;5412;59.450;18.124;2024-01-11T15:46:16;2.50;99.90
10722;DHT22;5412;59.450;18.124;2024-01-11T15:48:42;2.40;99.90
10722;DHT22;5412;59.450;18.124;2024-01-11T15:51:08;2.40;99.90